createdAt,value
2022-08-07T00:02:36.291Z,100.00
2022-08-07T00:05:00.599Z,100.00
2022-08-07T00:07:40.292Z,100.00
2022-08-07T00:10:26.944Z,100.00
2022-08-07T00:13:00.334Z,100.00
2022-08-07T00:15:38.619Z,100.00
2022-08-07T00:18:19.412Z,100.00
2022-08-07T00:20:50.305Z,100.00
2022-08-07T00:23:21.435Z,100.00
2022-08-07T00:25:52.093Z,100.00
2022-08-07T00:28:33.502Z,100.00
2022-08-07T00:31:12.249Z,100.00
2022-08-07T00:33:42.360Z,100.00
2022-08-07T00:36:11.101Z,100.00
2022-08-07T00:38:42.012Z,100.00
2022-08-07T00:41:14.718Z,100.00
2022-08-07T00:44:00.579Z,100.00
2022-08-07T00:46:32.910Z,100.00
2022-08-07T00:49:02.904Z,100.00
2022-08-07T00:51:56.691Z,100.00
2022-08-07T00:54:22.672Z,100.00
2022-08-07T00:56:52.407Z,100.00
2022-08-07T00:59:32.657Z,100.00
2022-08-07T01:02:06.267Z,100.00
2022-08-07T01:04:43.982Z,100.00
2022-08-07T01:07:13.368Z,100.00
2022-08-07T01:10:07.126Z,100.00
2022-08-07T01:12:32.950Z,100.00
2022-08-07T01:15:03.875Z,100.00
2022-08-07T01:17:34.311Z,100.00
2022-08-07T01:20:09.242Z,100.00
2022-08-07T01:22:47.045Z,100.00
2022-08-07T01:25:53.742Z,100.00
2022-08-07T01:28:16.441Z,100.00
2022-08-07T01:30:46.371Z,100.00
2022-08-07T01:33:16.696Z,100.00
2022-08-07T01:35:54.193Z,100.00
2022-08-07T01:38:36.984Z,100.00
2022-08-07T01:41:26.139Z,100.00
2022-08-07T01:43:58.449Z,100.00
2022-08-07T01:46:28.135Z,100.00
2022-08-07T01:49:00.097Z,100.00
2022-08-07T01:52:02.301Z,100.00
2022-08-07T01:54:33.287Z,100.00
2022-08-07T01:57:20.693Z,100.00
2022-08-07T01:59:58.278Z,100.00
2022-08-07T02:03:11.466Z,100.00
2022-08-07T02:05:42.957Z,100.00
2022-08-07T02:08:21.878Z,100.00
2022-08-07T02:10:58.565Z,100.00
2022-08-07T02:13:57.841Z,100.00
2022-08-07T02:16:33.057Z,100.00
2022-08-07T02:19:05.712Z,100.00
2022-08-07T02:21:58.529Z,100.00
2022-08-07T02:24:30.103Z,100.00
2022-08-07T02:27:03.576Z,100.00
2022-08-07T02:29:36.903Z,100.00
2022-08-07T02:32:23.208Z,100.00
2022-08-07T02:34:53.280Z,100.00
2022-08-07T02:37:27.730Z,100.00
2022-08-07T02:40:29.788Z,100.00
2022-08-07T02:43:00.818Z,100.00
2022-08-07T02:46:00.219Z,100.00
2022-08-07T02:48:21.605Z,100.00
2022-08-07T02:50:55.284Z,100.00
2022-08-07T02:53:38.322Z,100.00
2022-08-07T02:56:21.185Z,100.00
2022-08-07T02:58:55.385Z,100.00
2022-08-07T03:01:35.979Z,100.00
2022-08-07T03:04:14.684Z,100.00
2022-08-07T03:06:48.169Z,100.00
2022-08-07T03:09:42.434Z,100.00
2022-08-07T03:12:21.816Z,100.00
2022-08-07T03:15:02.432Z,100.00
2022-08-07T03:17:53.667Z,100.00
2022-08-07T03:20:25.189Z,100.00
2022-08-07T03:22:55.975Z,100.00
2022-08-07T03:25:32.450Z,100.00
2022-08-07T03:28:38.173Z,100.00
2022-08-07T03:31:42.074Z,100.00
2022-08-07T03:34:18.611Z,100.00
2022-08-07T03:36:54.181Z,100.00
2022-08-07T03:39:46.288Z,100.00
2022-08-07T03:42:18.306Z,100.00
2022-08-07T03:44:57.859Z,100.00
2022-08-07T03:47:48.222Z,100.00
2022-08-07T03:50:23.282Z,100.00
2022-08-07T03:52:55.281Z,100.00
2022-08-07T03:55:24.404Z,100.00
2022-08-07T03:59:05.486Z,100.00
2022-08-07T04:01:04.623Z,100.00
2022-08-07T04:03:49.592Z,100.00
2022-08-07T04:06:36.200Z,100.00
2022-08-07T04:09:05.748Z,100.00
2022-08-07T04:12:24.031Z,100.00
2022-08-07T04:14:38.401Z,100.00
2022-08-07T04:17:20.401Z,100.00
2022-08-07T04:19:55.035Z,100.00
2022-08-07T04:22:29.648Z,100.00
2022-08-07T04:25:02.640Z,100.00
2022-08-07T04:27:35.972Z,100.00
2022-08-07T04:30:21.519Z,100.00
2022-08-07T04:33:08.589Z,100.00
2022-08-07T04:35:41.768Z,100.00
2022-08-07T04:38:14.943Z,100.00
2022-08-07T04:40:52.986Z,100.00
2022-08-07T04:44:10.266Z,100.00
2022-08-07T04:46:36.000Z,100.00
2022-08-07T04:49:37.738Z,100.00
2022-08-07T04:52:15.655Z,100.00
2022-08-07T04:54:58.113Z,100.00
2022-08-07T04:58:10.081Z,100.00
2022-08-07T05:00:32.501Z,100.00
2022-08-07T05:03:16.875Z,100.00
2022-08-07T05:06:19.510Z,100.00
2022-08-07T05:09:02.139Z,100.00
2022-08-07T05:11:58.704Z,100.00
2022-08-07T05:14:52.167Z,100.00
2022-08-07T05:17:51.742Z,100.00
2022-08-07T05:20:23.861Z,100.00
2022-08-07T05:22:57.856Z,100.00
2022-08-07T05:26:10.938Z,100.00
2022-08-07T05:28:23.069Z,100.00
2022-08-07T05:30:59.487Z,100.00
2022-08-07T05:33:30.700Z,100.00
2022-08-07T05:36:08.084Z,100.00
2022-08-07T05:38:59.663Z,100.00
2022-08-07T05:42:01.779Z,100.00
2022-08-07T05:44:29.636Z,100.00
2022-08-07T05:47:01.227Z,100.00
2022-08-07T05:49:40.849Z,100.00
2022-08-07T05:52:11.800Z,100.00
2022-08-07T05:54:53.371Z,100.00
2022-08-07T05:57:29.849Z,100.00
2022-08-07T06:00:01.591Z,100.00
2022-08-07T06:02:42.568Z,93.65
2022-08-07T06:05:18.221Z,87.03
2022-08-07T06:08:13.682Z,79.21
2022-08-07T06:10:42.976Z,74.58
2022-08-07T06:13:15.525Z,72.23
2022-08-07T06:15:46.727Z,68.53
2022-08-07T06:18:24.955Z,68.25
2022-08-07T06:22:15.936Z,65.51
2022-08-07T06:24:46.199Z,63.44
2022-08-07T06:26:35.219Z,61.59
2022-08-07T06:29:06.523Z,61.31
2022-08-07T06:31:46.624Z,59.44
2022-08-07T06:34:20.824Z,57.06
2022-08-07T06:36:51.824Z,56.16
2022-08-07T06:40:17.475Z,54.16
2022-08-07T06:42:19.173Z,51.36
2022-08-07T06:45:17.986Z,50.63
2022-08-07T06:47:58.539Z,48.08
2022-08-07T06:50:35.992Z,48.18
2022-08-07T06:53:49.192Z,47.03
2022-08-07T06:56:01.442Z,47.17
2022-08-07T06:58:35.328Z,46.05
2022-08-07T07:01:16.459Z,43.23
2022-08-07T07:03:48.129Z,43.06
2022-08-07T07:06:23.870Z,42.23
2022-08-07T07:08:54.874Z,42.29
2022-08-07T07:12:07.724Z,41.45
2022-08-07T07:14:17.392Z,39.85
2022-08-07T07:16:53.589Z,40.00
2022-08-07T07:19:57.086Z,36.69
2022-08-07T07:22:36.590Z,35.95
2022-08-07T07:26:30.758Z,36.23
2022-08-07T07:28:07.561Z,35.92
2022-08-07T07:30:58.482Z,35.53
2022-08-07T07:33:31.434Z,34.58
2022-08-07T07:36:05.535Z,34.73
2022-08-07T07:38:43.574Z,33.10
2022-08-07T07:41:17.535Z,34.37
2022-08-07T07:44:13.920Z,32.99
2022-08-07T07:46:54.684Z,30.91
2022-08-07T07:50:36.410Z,31.96
2022-08-07T07:52:27.561Z,30.05
2022-08-07T07:55:21.964Z,31.89
2022-08-07T07:57:54.183Z,31.58
2022-08-07T08:00:43.353Z,31.25
2022-08-07T08:04:09.966Z,31.65
2022-08-07T08:06:24.407Z,29.84
2022-08-07T08:08:54.340Z,29.36
2022-08-07T08:11:59.319Z,30.08
2022-08-07T08:14:26.238Z,29.95
2022-08-07T08:16:57.150Z,29.85
2022-08-07T08:20:18.824Z,29.96
2022-08-07T08:23:02.571Z,28.63
2022-08-07T08:25:52.463Z,28.37
2022-08-07T08:28:38.148Z,27.07
2022-08-07T08:31:30.025Z,25.91
2022-08-07T08:34:10.632Z,25.76
2022-08-07T08:36:57.891Z,26.73
2022-08-07T08:39:39.667Z,26.27
2022-08-07T08:42:27.006Z,26.53
2022-08-07T08:45:06.569Z,25.17
2022-08-07T08:48:13.966Z,25.47
2022-08-07T08:50:51.623Z,24.21
2022-08-07T08:53:38.142Z,24.43
2022-08-07T08:56:12.629Z,23.43
2022-08-07T08:58:54.554Z,24.86
2022-08-07T09:01:58.484Z,24.71
2022-08-07T09:04:39.498Z,24.67
2022-08-07T09:07:15.460Z,23.99
2022-08-07T09:09:59.653Z,23.30
2022-08-07T09:12:57.873Z,23.23
2022-08-07T09:16:25.844Z,22.41
2022-08-07T09:19:07.063Z,22.36
2022-08-07T09:24:31.147Z,21.74
2022-08-07T09:25:25.702Z,21.91
2022-08-07T09:28:03.267Z,21.85
2022-08-07T09:30:57.712Z,22.24
2022-08-07T09:33:57.580Z,22.05
2022-08-07T09:37:01.045Z,21.86
2022-08-07T09:39:54.475Z,21.99
2022-08-07T09:42:43.332Z,20.24
2022-08-07T09:47:25.317Z,19.59
2022-08-07T09:50:02.070Z,21.56
2022-08-07T09:52:16.044Z,21.18
2022-08-07T09:54:47.119Z,20.75
2022-08-07T09:58:03.437Z,19.70
2022-08-07T10:00:50.566Z,21.40
2022-08-07T10:04:03.606Z,19.73
2022-08-07T10:06:55.851Z,20.46
2022-08-07T10:10:00.739Z,19.98
2022-08-07T10:13:29.743Z,19.82
2022-08-07T10:16:19.176Z,19.60
2022-08-07T10:19:38.505Z,18.96
2022-08-07T10:22:36.809Z,19.24
2022-08-07T10:25:22.871Z,19.47
2022-08-07T10:28:27.872Z,18.16
2022-08-07T10:31:45.314Z,18.17
2022-08-07T10:34:31.850Z,18.74
2022-08-07T10:38:00.559Z,20.04
2022-08-07T10:40:34.075Z,19.46
2022-08-07T10:43:11.360Z,19.25
2022-08-07T10:45:57.616Z,18.74
2022-08-07T10:48:41.466Z,18.65
2022-08-07T10:51:39.485Z,18.09
2022-08-07T10:54:17.386Z,18.44
2022-08-07T10:56:55.870Z,19.00
2022-08-07T10:59:47.513Z,18.32
2022-08-07T11:02:33.185Z,19.10
2022-08-07T11:05:35.743Z,18.68
2022-08-07T11:08:30.205Z,18.75
2022-08-07T11:11:37.680Z,18.90
2022-08-07T11:14:45.535Z,18.47
2022-08-07T11:17:23.420Z,19.06
2022-08-07T11:20:19.545Z,19.15
2022-08-07T11:23:01.796Z,19.08
2022-08-07T11:26:06.341Z,18.40
2022-08-07T11:28:37.014Z,19.30
2022-08-07T11:31:25.922Z,19.03
2022-08-07T11:34:00.209Z,19.29
2022-08-07T11:36:57.033Z,19.14
2022-08-07T11:40:00.233Z,19.05
2022-08-07T11:42:45.987Z,18.61
2022-08-07T11:45:35.435Z,18.69
2022-08-07T11:48:44.169Z,19.97
2022-08-07T11:51:46.588Z,20.12
2022-08-07T11:55:18.984Z,19.17
2022-08-07T11:58:33.593Z,19.44
2022-08-07T12:01:08.388Z,19.60
2022-08-07T12:03:58.900Z,18.99
2022-08-07T12:06:39.110Z,19.99
2022-08-07T12:09:16.449Z,18.31
2022-08-07T12:12:12.157Z,17.15
2022-08-07T12:14:55.576Z,17.93
2022-08-07T12:17:58.801Z,18.31
2022-08-07T12:20:32.352Z,17.50
2022-08-07T12:24:05.052Z,18.19
2022-08-07T12:29:04.488Z,18.01
2022-08-07T12:31:53.315Z,17.52
2022-08-07T12:34:55.785Z,18.32
2022-08-07T12:37:28.440Z,19.12
2022-08-07T12:40:44.129Z,19.16
2022-08-07T12:43:09.933Z,18.06
2022-08-07T12:45:52.271Z,18.93
2022-08-07T12:48:52.109Z,17.90
2022-08-07T12:51:46.692Z,18.38
2022-08-07T12:54:37.791Z,18.64
2022-08-07T12:57:09.797Z,18.89
2022-08-07T12:59:55.273Z,20.66
2022-08-07T13:02:43.374Z,19.27
2022-08-07T13:06:02.925Z,18.95
2022-08-07T13:08:27.479Z,19.00
2022-08-07T13:11:04.016Z,19.29
2022-08-07T13:13:50.099Z,19.61
2022-08-07T13:16:36.789Z,19.64
2022-08-07T13:19:45.970Z,19.44
2022-08-07T13:22:27.570Z,18.97
2022-08-07T13:25:09.959Z,19.69
2022-08-07T13:28:11.077Z,19.06
2022-08-07T13:30:52.303Z,19.48
2022-08-07T13:34:30.190Z,20.39
2022-08-07T13:36:40.597Z,20.31
2022-08-07T13:39:28.706Z,19.88
2022-08-07T13:42:10.444Z,19.84
2022-08-07T13:44:40.668Z,20.93
2022-08-07T13:47:10.571Z,20.86
2022-08-07T13:50:35.197Z,23.07
2022-08-07T13:52:46.894Z,22.95
2022-08-07T13:55:28.702Z,23.31
2022-08-07T13:58:28.026Z,23.95
2022-08-07T14:01:10.731Z,23.90
2022-08-07T14:04:07.731Z,24.11
2022-08-07T14:07:00.851Z,25.10
2022-08-07T14:10:12.350Z,25.79
2022-08-07T14:12:28.200Z,25.68
2022-08-07T14:15:01.552Z,26.61
2022-08-07T14:18:12.196Z,26.24
2022-08-07T14:20:43.149Z,27.05
2022-08-07T14:23:31.497Z,27.23
2022-08-07T14:26:28.456Z,27.50
2022-08-07T14:29:08.486Z,27.27
2022-08-07T14:31:43.439Z,26.95
2022-08-07T14:34:27.266Z,26.19
2022-08-07T14:37:03.658Z,27.38
2022-08-07T14:40:18.045Z,27.90
2022-08-07T14:42:32.320Z,27.83
2022-08-07T14:45:21.855Z,28.88
2022-08-07T14:47:53.076Z,28.56
2022-08-07T14:50:28.335Z,28.47
2022-08-07T14:53:07.878Z,28.45
2022-08-07T14:55:47.904Z,28.83
2022-08-07T14:58:36.601Z,29.21
2022-08-07T15:01:21.326Z,29.63
2022-08-07T15:03:53.311Z,29.27
2022-08-07T15:06:28.610Z,29.62
2022-08-07T15:09:02.817Z,29.58
2022-08-07T15:12:08.139Z,30.18
2022-08-07T15:14:56.109Z,30.07
2022-08-07T15:17:54.525Z,29.82
2022-08-07T15:25:02.097Z,30.58
2022-08-07T15:26:59.243Z,31.48
2022-08-07T15:30:08.843Z,32.04
2022-08-07T15:32:39.424Z,32.66
2022-08-07T15:35:14.480Z,32.70
2022-08-07T15:38:17.886Z,32.19
2022-08-07T15:41:00.430Z,33.25
2022-08-07T15:44:02.208Z,34.05
2022-08-07T15:52:30.562Z,34.56
2022-08-07T15:55:04.427Z,34.50
2022-08-07T15:57:39.974Z,34.87
2022-08-07T16:00:36.878Z,33.12
2022-08-07T16:03:20.961Z,33.08
2022-08-07T16:06:12.370Z,33.14
2022-08-07T16:08:45.669Z,33.38
2022-08-07T16:11:26.915Z,33.68
2022-08-07T16:14:22.301Z,34.65
2022-08-07T16:16:57.547Z,36.06
2022-08-07T16:19:59.238Z,36.43
2022-08-07T16:22:38.964Z,36.71
2022-08-07T16:25:54.692Z,35.94
2022-08-07T16:30:08.698Z,36.13
2022-08-07T16:31:51.545Z,37.21
2022-08-07T16:34:39.407Z,37.15
2022-08-07T16:38:05.527Z,36.25
2022-08-07T16:40:23.011Z,37.09
2022-08-07T16:43:01.600Z,38.37
2022-08-07T16:46:47.620Z,37.69
2022-08-07T16:50:28.932Z,38.17
2022-08-07T16:52:41.749Z,38.20
2022-08-07T16:54:54.509Z,38.12
2022-08-07T16:58:01.929Z,38.10
2022-08-07T17:00:29.867Z,38.15
2022-08-07T17:03:09.774Z,38.24
2022-08-07T17:06:19.698Z,38.88
2022-08-07T17:09:09.787Z,38.40
2022-08-07T17:12:01.243Z,38.24
2022-08-07T17:17:44.219Z,38.69
2022-08-07T17:20:21.462Z,39.11
2022-08-07T17:22:58.474Z,39.26
2022-08-07T17:25:47.846Z,39.35
2022-08-07T17:28:25.228Z,40.31
2022-08-07T17:31:15.930Z,40.07
2022-08-07T17:34:15.314Z,40.73
2022-08-07T17:36:57.779Z,40.39
2022-08-07T17:39:57.950Z,41.07
2022-08-07T17:42:58.501Z,41.61
2022-08-07T17:45:32.076Z,41.50
2022-08-07T17:48:06.646Z,41.17
2022-08-07T17:51:03.405Z,41.30
2022-08-07T17:54:00.407Z,41.52
2022-08-07T17:56:33.878Z,41.77
2022-08-07T17:59:05.517Z,41.71
2022-08-07T18:01:43.604Z,42.17
2022-08-07T18:04:30.866Z,42.54
2022-08-07T18:07:24.645Z,43.03
2022-08-07T18:10:10.385Z,43.58
2022-08-07T18:13:15.271Z,43.70
2022-08-07T18:15:57.023Z,44.14
2022-08-07T18:18:45.696Z,44.37
2022-08-07T18:21:42.064Z,45.04
2022-08-07T18:24:32.974Z,45.25
2022-08-07T18:27:25.874Z,46.12
2022-08-07T18:30:31.206Z,46.36
2022-08-07T18:33:22.462Z,46.53
2022-08-07T18:36:16.722Z,47.34
2022-08-07T18:38:57.159Z,48.08
2022-08-07T18:41:45.769Z,48.34
2022-08-07T18:44:27.848Z,48.75
2022-08-07T18:47:02.264Z,49.29
2022-08-07T18:50:31.693Z,49.69
2022-08-07T18:55:41.912Z,50.20
2022-08-07T18:58:31.407Z,50.35
2022-08-07T19:01:06.836Z,51.13
2022-08-07T19:03:41.644Z,51.48
2022-08-07T19:06:22.584Z,52.25
2022-08-07T19:09:09.438Z,53.03
2022-08-07T19:12:05.443Z,54.01
2022-08-07T19:14:42.979Z,54.33
2022-08-07T19:18:01.757Z,55.06
2022-08-07T19:20:29.705Z,55.21
2022-08-07T19:23:18.978Z,56.77
2022-08-07T19:26:24.982Z,56.79
2022-08-07T19:30:56.703Z,56.88
2022-08-07T19:32:05.351Z,59.43
2022-08-07T19:34:34.428Z,58.28
2022-08-07T19:37:17.633Z,58.67
2022-08-07T19:39:57.867Z,59.36
2022-08-07T19:42:31.564Z,59.39
2022-08-07T19:45:08.437Z,59.77
2022-08-07T19:47:42.074Z,59.58
2022-08-07T19:50:40.815Z,60.71
2022-08-07T19:53:01.106Z,61.40
2022-08-07T19:55:57.473Z,62.15
2022-08-07T19:58:29.223Z,62.40
2022-08-07T20:00:58.485Z,62.97
2022-08-07T20:03:34.581Z,63.46
2022-08-07T20:06:06.005Z,64.06
2022-08-07T20:08:36.976Z,65.12
2022-08-07T20:11:10.171Z,64.38
2022-08-07T20:13:43.324Z,65.25
2022-08-07T20:16:32.350Z,65.16
2022-08-07T20:19:05.726Z,64.80
2022-08-07T20:21:41.830Z,64.82
2022-08-07T20:24:19.184Z,66.69
2022-08-07T20:26:50.208Z,67.14
2022-08-07T20:29:48.906Z,69.31
2022-08-07T20:32:22.114Z,71.41
2022-08-07T20:34:54.922Z,72.25
2022-08-07T20:37:25.684Z,72.74
2022-08-07T20:40:03.265Z,73.21
2022-08-07T20:42:34.540Z,74.11
2022-08-07T20:46:24.951Z,74.24
2022-08-07T20:47:58.195Z,75.41
2022-08-07T20:50:30.608Z,75.46
2022-08-07T20:52:59.630Z,76.38
2022-08-07T20:55:28.410Z,76.81
2022-08-07T20:58:11.819Z,77.72
2022-08-07T21:00:58.542Z,78.18
2022-08-07T21:03:28.660Z,79.27
2022-08-07T21:06:21.738Z,80.85
2022-08-07T21:09:00.870Z,80.76
2022-08-07T21:11:46.036Z,80.64
2022-08-07T21:14:33.817Z,81.22
2022-08-07T21:18:00.362Z,82.64
2022-08-07T21:20:05.215Z,82.41
2022-08-07T21:22:39.936Z,82.75
2022-08-07T21:25:18.181Z,83.05
2022-08-07T21:27:53.556Z,84.26
2022-08-07T21:30:24.960Z,84.36
2022-08-07T21:33:02.091Z,84.63
2022-08-07T21:36:04.849Z,84.93
2022-08-07T21:38:29.558Z,85.36
2022-08-07T21:41:00.610Z,85.99
2022-08-07T21:43:47.371Z,85.69
2022-08-07T21:46:32.132Z,85.50
2022-08-07T21:49:15.059Z,85.45
2022-08-07T21:52:03.602Z,85.99
2022-08-07T21:54:39.474Z,86.26
2022-08-07T21:57:31.584Z,85.97
2022-08-07T22:00:22.287Z,86.69
2022-08-07T22:02:56.069Z,85.59
2022-08-07T22:05:44.768Z,85.34
2022-08-07T22:08:18.507Z,86.75
2022-08-07T22:10:51.861Z,86.64
2022-08-07T22:13:24.359Z,86.79
2022-08-07T22:16:43.305Z,87.43
2022-08-07T22:19:08.362Z,87.50
2022-08-07T22:22:02.355Z,86.68
2022-08-07T22:24:34.230Z,87.60
2022-08-07T22:27:07.602Z,88.91
2022-08-07T22:29:48.360Z,89.19
2022-08-07T22:32:24.629Z,89.20
2022-08-07T22:34:54.336Z,88.67
2022-08-07T22:38:01.762Z,89.51
2022-08-07T22:40:19.969Z,90.96
2022-08-07T22:42:51.071Z,91.20
2022-08-07T22:46:21.741Z,92.11
2022-08-07T22:48:54.797Z,92.33
2022-08-07T22:51:36.454Z,93.15
2022-08-07T22:54:16.601Z,94.13
2022-08-07T22:56:52.245Z,94.62
2022-08-07T22:59:32.965Z,95.44
2022-08-07T23:02:08.251Z,95.10
2022-08-07T23:05:21.896Z,95.65
2022-08-07T23:07:52.770Z,96.03
2022-08-07T23:10:39.652Z,96.65
2022-08-07T23:13:29.421Z,97.71
2022-08-07T23:16:43.287Z,97.46
2022-08-07T23:19:13.948Z,97.63
2022-08-07T23:21:50.402Z,97.99
2022-08-07T23:24:31.224Z,98.68
2022-08-07T23:27:07.770Z,98.90
2022-08-07T23:30:39.682Z,98.93
2022-08-07T23:34:34.211Z,99.74
2022-08-07T23:36:04.724Z,99.84
2022-08-07T23:38:42.381Z,100.00
2022-08-07T23:41:20.788Z,100.00
2022-08-07T23:44:00.350Z,100.00
2022-08-07T23:46:37.789Z,100.00
2022-08-07T23:49:16.447Z,100.00
2022-08-07T23:53:01.038Z,100.00
2022-08-07T23:54:46.114Z,100.00
2022-08-07T23:57:24.485Z,100.00
